Time;durP1;ratioP1;P1;durP2;ratioP2;P2;SDS_P1;SDS_P2;PMS_P1;PMS_P2;Temp;Humidity;BMP_temperature;BMP_pressure;BME280_temperature;BME280_humidity;BME280_pressure;Samples;Min_cycle;Max_cycle;Signal;HPM_P1;HPM_P2
2024/03/27 00:00:53;0.00;0.00;0.62;0.00;0.00;0.62;3.60;2.80;;;22.10;22.70;;;;;;2271900;61;20394;-66
2024/03/27 00:03:19;0.00;0.00;0.62;0.00;0.00;0.62;4.00;3.20;;;22.10;22.70;;;;;;2271722;60;20351;-67
2024/03/27 00:05:46;0.00;0.00;0.62;0.00;0.00;0.62;3.70;3.30;;;22.10;22.70;;;;;;2272250;61;20363;-66
2024/03/27 00:08:13;0.00;0.00;0.62;0.00;0.00;0.62;4.33;3.50;;;22.10;22.70;;;;;;2271837;61;20423;-68
2024/03/27 00:10:40;0.00;0.00;0.62;0.00;0.00;0.62;3.77;2.90;;;22.10;22.70;;;;;;2272229;61;20355;-65
2024/03/27 00:13:07;0.00;0.00;0.62;0.00;0.00;0.62;3.83;3.43;;;22.10;22.70;;;;;;2271860;61;20362;-67
2024/03/27 00:15:33;0.00;0.00;0.62;0.00;0.00;0.62;3.80;3.23;;;22.10;22.70;;;;;;2271766;61;20355;-67
2024/03/27 00:17:59;0.00;0.00;0.62;0.00;0.00;0.62;3.20;2.90;;;22.10;22.70;;;;;;2272069;61;20793;-65
2024/03/27 00:20:25;0.00;0.00;0.62;0.00;0.00;0.62;3.73;2.63;;;22.10;22.70;;;;;;2271966;61;20877;-66
2024/03/27 00:22:52;0.00;0.00;0.62;0.00;0.00;0.62;4.70;4.00;;;22.10;22.70;;;;;;2271790;61;20853;-66
2024/03/27 00:25:19;0.00;0.00;0.62;0.00;0.00;0.62;3.97;3.13;;;22.10;22.70;;;;;;2272123;61;20745;-66
2024/03/27 00:27:45;0.00;0.00;0.62;0.00;0.00;0.62;4.13;2.90;;;22.10;22.70;;;;;;2272057;61;20384;-66
2024/03/27 00:30:12;0.00;0.00;0.62;0.00;0.00;0.62;3.43;3.13;;;22.10;22.70;;;;;;2271774;61;20799;-65
2024/03/27 00:32:39;0.00;0.00;0.62;0.00;0.00;0.62;3.43;3.03;;;22.10;22.70;;;;;;2271993;61;20416;-67
2024/03/27 00:35:06;0.00;0.00;0.62;0.00;0.00;0.62;6.70;3.33;;;22.10;23.20;;;;;;2271621;61;20359;-66
2024/03/27 00:37:32;0.00;0.00;0.62;0.00;0.00;0.62;3.67;2.97;;;22.10;22.70;;;;;;2271592;61;20387;-65
2024/03/27 00:39:58;0.00;0.00;0.62;0.00;0.00;0.62;4.17;2.73;;;22.10;22.70;;;;;;2272196;61;20344;-67
2024/03/27 00:42:26;0.00;0.00;0.62;0.00;0.00;0.62;3.67;3.03;;;22.10;22.70;;;;;;2271998;61;20894;-66
2024/03/27 00:44:54;0.00;0.00;0.62;0.00;0.00;0.62;4.37;3.20;;;22.10;22.70;;;;;;2271780;61;20371;-66
2024/03/27 00:47:20;0.00;0.00;0.62;0.00;0.00;0.62;3.40;3.10;;;22.10;22.70;;;;;;2271929;61;20407;-67
2024/03/27 00:49:46;0.00;0.00;0.62;0.00;0.00;0.62;4.00;2.90;;;22.10;22.70;;;;;;2272127;61;20335;-66
2024/03/27 00:52:12;0.00;0.00;0.62;0.00;0.00;0.62;4.60;3.53;;;22.10;22.70;;;;;;2271750;61;20876;-66
2024/03/27 00:54:39;0.00;0.00;0.62;0.00;0.00;0.62;3.50;3.00;;;22.00;22.60;;;;;;2271733;61;20351;-66
2024/03/27 00:57:06;0.00;0.00;0.62;0.00;0.00;0.62;4.80;3.37;;;22.00;22.60;;;;;;2271896;61;20367;-66
2024/03/27 00:59:34;0.00;0.00;0.62;0.00;0.00;0.62;3.80;3.27;;;22.10;22.70;;;;;;2271577;61;20347;-66
2024/03/27 01:02:01;0.00;0.00;0.62;0.00;0.00;0.62;3.70;3.17;;;22.00;22.60;;;;;;2271616;61;20373;-65
2024/03/27 01:04:27;0.00;0.00;0.62;0.00;0.00;0.62;3.27;2.97;;;22.00;22.60;;;;;;2271902;61;20336;-66
2024/03/27 01:06:53;0.00;0.00;0.62;0.00;0.00;0.62;3.40;2.80;;;22.00;22.70;;;;;;2271830;61;20390;-66
2024/03/27 01:09:19;0.00;0.00;0.62;0.00;0.00;0.62;5.00;3.40;;;22.00;22.60;;;;;;2272154;61;20378;-67
2024/03/27 01:11:45;0.00;0.00;0.62;0.00;0.00;0.62;3.30;2.90;;;22.00;22.60;;;;;;2271940;61;20351;-66
2024/03/27 01:14:12;0.00;0.00;0.62;0.00;0.00;0.62;4.20;3.40;;;22.00;22.70;;;;;;2271483;61;20350;-65
2024/03/27 01:16:39;0.00;0.00;0.62;0.00;0.00;0.62;3.23;2.90;;;22.00;22.70;;;;;;2271591;61;20919;-64
2024/03/27 01:19:06;0.00;0.00;0.62;0.00;0.00;0.62;4.20;3.63;;;22.00;22.70;;;;;;2271990;61;20350;-66
2024/03/27 01:21:32;0.00;0.00;0.62;0.00;0.00;0.62;4.07;3.00;;;22.00;22.70;;;;;;2271805;61;20355;-66
2024/03/27 01:23:58;0.00;0.00;0.62;0.00;0.00;0.62;4.00;3.40;;;22.00;22.70;;;;;;2272034;61;20339;-66
2024/03/27 01:26:25;0.00;0.00;0.62;0.00;0.00;0.62;3.57;2.90;;;22.00;22.60;;;;;;2271927;61;20826;-66
2024/03/27 01:28:51;0.00;0.00;0.62;0.00;0.00;0.62;3.50;3.20;;;22.00;22.60;;;;;;2271657;61;20445;-65
2024/03/27 01:31:17;0.00;0.00;0.62;0.00;0.00;0.62;3.90;3.00;;;22.10;22.70;;;;;;2272010;61;20336;-66
2024/03/27 01:33:46;0.00;0.00;0.62;0.00;0.00;0.62;4.53;3.80;;;22.00;22.60;;;;;;2273024;61;20408;-67
2024/03/27 01:36:13;0.00;0.00;0.62;0.00;0.00;0.62;4.43;3.23;;;22.00;22.70;;;;;;2272295;61;20377;-66
2024/03/27 01:38:39;0.00;0.00;0.62;0.00;0.00;0.62;3.97;3.30;;;22.00;22.60;;;;;;2272695;61;20407;-66
2024/03/27 01:41:06;0.00;0.00;0.62;0.00;0.00;0.62;3.97;3.17;;;22.00;22.60;;;;;;2274229;61;20900;-67
2024/03/27 01:43:32;0.00;0.00;0.62;0.00;0.00;0.62;3.43;2.87;;;22.10;22.70;;;;;;2271406;61;20352;-66
2024/03/27 01:45:59;0.00;0.00;0.62;0.00;0.00;0.62;4.10;3.50;;;22.10;22.70;;;;;;2271174;61;20351;-66
2024/03/27 01:48:25;0.00;0.00;0.62;0.00;0.00;0.62;3.90;3.10;;;22.00;22.60;;;;;;2271524;61;20386;-66
2024/03/27 01:50:54;0.00;0.00;0.62;0.00;0.00;0.62;3.87;3.20;;;22.10;22.70;;;;;;2271336;61;20351;-66
2024/03/27 01:53:20;0.00;0.00;0.62;0.00;0.00;0.62;3.60;3.20;;;22.10;22.70;;;;;;2271211;61;20366;-64
2024/03/27 01:55:47;0.00;0.00;0.62;0.00;0.00;0.62;6.47;3.60;;;22.10;22.60;;;;;;2271446;61;20358;-66
2024/03/27 01:58:14;0.00;0.00;0.62;0.00;0.00;0.62;5.10;3.00;;;22.10;22.70;;;;;;2270757;61;20923;-67
2024/03/27 02:00:41;0.00;0.00;0.62;0.00;0.00;0.62;3.40;2.93;;;22.10;22.60;;;;;;2271162;61;20363;-64
2024/03/27 02:03:07;0.00;0.00;0.62;0.00;0.00;0.62;4.23;3.40;;;22.10;22.60;;;;;;2271305;61;20347;-67
2024/03/27 02:05:34;0.00;0.00;0.62;0.00;0.00;0.62;3.30;3.00;;;22.10;22.60;;;;;;2271123;61;20817;-66
2024/03/27 02:08:01;0.00;0.00;0.62;0.00;0.00;0.62;4.10;3.30;;;22.20;22.60;;;;;;2269607;61;20406;-65
2024/03/27 02:10:27;0.00;0.00;0.62;0.00;0.00;0.62;4.13;3.57;;;22.10;22.50;;;;;;2268053;60;20769;-66
2024/03/27 02:12:53;0.00;0.00;0.62;0.00;0.00;0.62;4.50;3.40;;;22.10;22.50;;;;;;2270924;61;20390;-66
2024/03/27 02:15:20;0.00;0.00;0.62;0.00;0.00;0.62;4.07;3.00;;;22.10;22.50;;;;;;2271008;61;20926;-66
2024/03/27 02:17:46;0.00;0.00;0.62;0.00;0.00;0.62;3.63;3.10;;;22.10;22.50;;;;;;2271317;61;20368;-66
2024/03/27 02:20:12;0.00;0.00;0.62;0.00;0.00;0.62;3.33;2.80;;;22.10;22.50;;;;;;2271015;61;20347;-66
2024/03/27 02:22:38;0.00;0.00;0.62;0.00;0.00;0.62;3.73;3.33;;;22.10;22.50;;;;;;2271245;61;20362;-66
2024/03/27 02:25:15;0.00;0.00;0.62;0.00;0.00;0.62;3.93;3.20;;;22.10;22.50;;;;;;2271331;61;20407;-65
2024/03/27 02:27:42;0.00;0.00;0.62;0.00;0.00;0.62;3.83;3.03;;;22.10;22.50;;;;;;2271474;60;20374;-66
2024/03/27 02:30:10;0.00;0.00;0.62;0.00;0.00;0.62;3.63;3.10;;;22.10;22.50;;;;;;2271726;61;20369;-66
2024/03/27 02:32:36;0.00;0.00;0.62;0.00;0.00;0.62;3.60;3.27;;;22.10;22.50;;;;;;2271623;61;20347;-67
2024/03/27 02:35:03;0.00;0.00;0.62;0.00;0.00;0.62;3.70;2.90;;;22.10;22.50;;;;;;2272169;61;20355;-66
2024/03/27 02:37:29;0.00;0.00;0.62;0.00;0.00;0.62;3.70;3.10;;;22.10;22.50;;;;;;2271956;61;20391;-66
2024/03/27 02:39:56;0.00;0.00;0.62;0.00;0.00;0.62;3.70;3.20;;;22.10;22.50;;;;;;2272001;61;20378;-65
2024/03/27 02:42:22;0.00;0.00;0.62;0.00;0.00;0.62;3.20;2.80;;;22.10;22.50;;;;;;2272092;61;20374;-66
2024/03/27 02:44:49;0.00;0.00;0.62;0.00;0.00;0.62;4.03;3.37;;;22.10;22.50;;;;;;2271861;61;20635;-65
2024/03/27 02:47:15;0.00;0.00;0.62;0.00;0.00;0.62;4.97;3.33;;;22.10;22.50;;;;;;2268873;61;20466;-67
2024/03/27 02:49:41;0.00;0.00;0.62;0.00;0.00;0.62;4.17;3.37;;;22.10;22.50;;;;;;2267798;61;20352;-66
2024/03/27 02:52:08;0.00;0.00;0.62;0.00;0.00;0.62;4.10;3.03;;;22.10;22.50;;;;;;2267665;61;20352;-65
2024/03/27 02:54:34;0.00;0.00;0.62;0.00;0.00;0.62;3.60;2.60;;;22.10;22.50;;;;;;2268577;61;20366;-66
2024/03/27 02:57:00;0.00;0.00;0.62;0.00;0.00;0.62;3.70;3.20;;;22.10;22.50;;;;;;2271843;61;20466;-66
2024/03/27 02:59:26;0.00;0.00;0.62;0.00;0.00;0.62;4.37;2.90;;;22.10;22.50;;;;;;2271877;61;20905;-66
2024/03/27 03:01:54;0.00;0.00;0.62;0.00;0.00;0.62;3.50;2.87;;;22.00;22.40;;;;;;2271480;61;20930;-66
2024/03/27 03:04:20;0.00;0.00;0.62;0.00;0.00;0.62;3.33;3.00;;;22.00;22.40;;;;;;2271332;61;20919;-66
2024/03/27 03:06:46;0.00;0.00;0.62;0.00;0.00;0.62;3.07;2.77;;;22.00;22.40;;;;;;2271955;61;20424;-66
2024/03/27 03:09:12;0.00;0.00;0.62;0.00;0.00;0.62;3.40;2.90;;;22.00;22.40;;;;;;2271606;61;20745;-66
2024/03/27 03:11:39;0.00;0.00;0.62;0.00;0.00;0.62;4.90;3.53;;;22.00;22.40;;;;;;2271792;61;20400;-66
2024/03/27 03:14:06;0.00;0.00;0.62;0.00;0.00;0.62;3.83;3.13;;;22.00;22.40;;;;;;2271986;61;20347;-66
2024/03/27 03:16:32;0.00;0.00;0.62;0.00;0.00;0.62;3.47;2.80;;;22.00;22.40;;;;;;2271663;61;20444;-66
2024/03/27 03:19:00;0.00;0.00;0.62;0.00;0.00;0.62;5.20;3.33;;;22.00;22.40;;;;;;2271474;61;20761;-66
2024/03/27 03:21:26;0.00;0.00;0.62;0.00;0.00;0.62;3.53;3.23;;;22.00;22.40;;;;;;2272045;61;20347;-66
2024/03/27 03:23:52;0.00;0.00;0.62;0.00;0.00;0.62;3.43;3.10;;;22.00;22.40;;;;;;2271767;61;20369;-66
2024/03/27 03:26:18;0.00;0.00;0.62;0.00;0.00;0.62;3.87;3.23;;;22.00;22.40;;;;;;2271479;61;20370;-65
2024/03/27 03:28:44;0.00;0.00;0.62;0.00;0.00;0.62;3.27;2.97;;;22.00;22.40;;;;;;2272170;61;20389;-66
2024/03/27 03:31:16;0.00;0.00;0.62;0.00;0.00;0.62;4.30;3.23;;;22.00;22.40;;;;;;2271707;61;20355;-66
2024/03/27 03:33:43;0.00;0.00;0.62;0.00;0.00;0.62;4.20;3.00;;;22.00;22.40;;;;;;2271437;61;20914;-66
2024/03/27 03:36:11;0.00;0.00;0.62;0.00;0.00;0.62;3.80;2.57;;;22.00;22.40;;;;;;2271779;61;20355;-65
2024/03/27 03:38:37;0.00;0.00;0.62;0.00;0.00;0.62;3.67;3.07;;;22.00;22.40;;;;;;2271458;60;20911;-66
2024/03/27 03:41:05;0.00;0.00;0.62;0.00;0.00;0.62;3.43;2.83;;;22.00;22.50;;;;;;2271488;61;20390;-66
2024/03/27 03:43:31;0.00;0.00;0.62;0.00;0.00;0.62;3.53;2.87;;;22.00;22.50;;;;;;2271759;61;20356;-66
2024/03/27 03:45:58;0.00;0.00;0.62;0.00;0.00;0.62;3.30;3.00;;;22.00;22.40;;;;;;2271627;61;20426;-66
2024/03/27 03:48:24;0.00;0.00;0.62;0.00;0.00;0.62;4.47;3.17;;;21.90;22.40;;;;;;2271461;61;20973;-65
2024/03/27 03:50:50;0.00;0.00;0.62;0.00;0.00;0.62;3.30;2.77;;;21.90;22.40;;;;;;2272038;61;20344;-66
2024/03/27 03:53:17;0.00;0.00;0.62;0.00;0.00;0.62;3.10;2.77;;;21.90;22.40;;;;;;2271667;61;20355;-66
2024/03/27 03:55:43;0.00;0.00;0.62;0.00;0.00;0.62;3.90;3.50;;;21.90;22.40;;;;;;2271586;61;20454;-65
2024/03/27 03:58:12;0.00;0.00;0.62;0.00;0.00;0.62;4.23;3.30;;;21.90;22.40;;;;;;2271854;61;20378;-66
2024/03/27 04:00:38;0.00;0.00;0.62;0.00;0.00;0.62;4.20;2.90;;;21.90;22.40;;;;;;2271382;61;20370;-65
2024/03/27 04:03:05;0.00;0.00;0.62;0.00;0.00;0.62;4.17;3.27;;;21.90;22.40;;;;;;2271048;61;20355;-64
2024/03/27 04:05:31;0.00;0.00;0.62;0.00;0.00;0.62;3.77;3.27;;;21.90;22.40;;;;;;2271774;61;20434;-65
2024/03/27 04:07:57;0.00;0.00;0.62;0.00;0.00;0.62;3.83;3.03;;;21.90;22.40;;;;;;2271367;61;20478;-63
2024/03/27 04:10:24;0.00;0.00;0.62;0.00;0.00;0.62;3.83;3.07;;;21.90;22.40;;;;;;2271536;61;20873;-66
2024/03/27 04:12:50;0.00;0.00;0.62;0.00;0.00;0.62;3.20;2.83;;;21.90;22.40;;;;;;2271837;61;20355;-65
2024/03/27 04:15:17;0.00;0.00;0.62;0.00;0.00;0.62;4.27;3.40;;;21.90;22.40;;;;;;2271466;61;20942;-65
2024/03/27 04:17:43;0.00;0.00;0.62;0.00;0.00;0.62;3.20;2.80;;;21.90;22.40;;;;;;2271214;61;20359;-65
2024/03/27 04:20:12;0.00;0.00;0.62;0.00;0.00;0.62;3.90;3.10;;;21.90;22.40;;;;;;2271777;61;20358;-65
2024/03/27 04:22:38;0.00;0.00;0.62;0.00;0.00;0.62;4.30;3.60;;;21.90;22.40;;;;;;2271470;61;20354;-66
2024/03/27 04:25:06;0.00;0.00;0.62;0.00;0.00;0.62;3.10;2.70;;;21.90;22.40;;;;;;2271566;61;20350;-67
2024/03/27 04:27:33;0.00;0.00;0.62;0.00;0.00;0.62;5.00;3.90;;;21.90;22.40;;;;;;2271455;61;20422;-66
2024/03/27 04:29:59;0.00;0.00;0.62;0.00;0.00;0.62;2.83;2.60;;;21.90;22.90;;;;;;2271582;61;20926;-65
2024/03/27 04:32:26;0.00;0.00;0.62;0.00;0.00;0.62;7.00;4.00;;;21.90;22.40;;;;;;2271283;61;20363;-65
2024/03/27 04:34:52;0.00;0.00;0.62;0.00;0.00;0.62;3.00;2.70;;;21.90;22.40;;;;;;2271534;61;20351;-66
2024/03/27 04:37:18;0.00;0.00;0.62;0.00;0.00;0.62;3.13;2.80;;;21.90;22.40;;;;;;2271328;61;20436;-66
2024/03/27 04:39:44;0.00;0.00;0.62;0.00;0.00;0.62;3.17;2.87;;;21.90;22.40;;;;;;2271216;61;20358;-66
2024/03/27 04:42:10;0.00;0.00;0.62;0.00;0.00;0.62;5.27;3.40;;;21.90;22.40;;;;;;2271566;61;20339;-65
2024/03/27 04:44:38;0.00;0.00;0.62;0.00;0.00;0.62;3.30;3.00;;;21.90;22.40;;;;;;2271743;61;20367;-66
2024/03/27 04:47:04;0.00;0.00;0.62;0.00;0.00;0.62;3.90;3.30;;;21.80;22.30;;;;;;2271308;61;20394;-66
2024/03/27 04:49:31;0.00;0.00;0.62;0.00;0.00;0.62;3.50;3.00;;;21.90;22.40;;;;;;2271597;61;20647;-66
2024/03/27 04:51:57;0.00;0.00;0.62;0.00;0.00;0.62;3.40;2.70;;;21.80;22.30;;;;;;2271423;61;20355;-66
2024/03/27 04:54:23;0.00;0.00;0.62;0.00;0.00;0.62;2.97;2.67;;;21.80;22.30;;;;;;2271164;61;20383;-66
2024/03/27 04:56:49;0.00;0.00;0.62;0.00;0.00;0.62;3.33;2.90;;;21.80;22.30;;;;;;2271723;61;20367;-66
2024/03/27 04:59:15;0.00;0.00;0.62;0.00;0.00;0.62;4.13;3.17;;;21.80;22.90;;;;;;2271359;61;20344;-65
2024/03/27 05:01:43;0.00;0.00;0.62;0.00;0.00;0.62;3.77;3.00;;;21.80;22.30;;;;;;2271048;61;20362;-64
2024/03/27 05:04:09;0.00;0.00;0.62;0.00;0.00;0.62;3.50;2.43;;;21.80;22.30;;;;;;2271268;61;20786;-66
2024/03/27 05:06:41;0.00;0.00;0.62;0.00;0.00;0.62;4.67;3.47;;;21.80;22.30;;;;;;2271392;61;20564;-65
2024/03/27 05:09:10;0.00;0.00;0.62;0.00;0.00;0.62;4.37;3.00;;;21.80;22.30;;;;;;2271340;61;20444;-66
2024/03/27 05:11:36;0.00;0.00;0.62;0.00;0.00;0.62;3.97;3.10;;;21.80;22.30;;;;;;2271620;61;20363;-65
2024/03/27 05:14:02;0.00;0.00;0.62;0.00;0.00;0.62;3.80;3.30;;;21.80;22.30;;;;;;2271424;61;20950;-65
2024/03/27 05:16:29;0.00;0.00;0.62;0.00;0.00;0.62;3.17;2.87;;;21.80;22.30;;;;;;2271098;61;20379;-66
2024/03/27 05:18:56;0.00;0.00;0.62;0.00;0.00;0.62;5.23;3.67;;;21.80;22.30;;;;;;2271557;61;20396;-66
2024/03/27 05:21:23;0.00;0.00;0.62;0.00;0.00;0.62;3.57;2.90;;;21.80;22.30;;;;;;2271595;61;20360;-66
2024/03/27 05:23:49;0.00;0.00;0.62;0.00;0.00;0.62;4.13;3.23;;;21.80;22.30;;;;;;2271327;61;20347;-66
2024/03/27 05:26:15;0.00;0.00;0.62;0.00;0.00;0.62;4.23;3.03;;;21.80;22.30;;;;;;2271557;61;20400;-66
2024/03/27 05:28:41;0.00;0.00;0.62;0.00;0.00;0.62;3.70;2.60;;;21.80;22.30;;;;;;2271316;61;20363;-66
2024/03/27 05:31:07;0.00;0.00;0.62;0.00;0.00;0.62;3.30;3.00;;;21.80;22.40;;;;;;2271271;61;20390;-66
2024/03/27 05:33:33;0.00;0.00;0.62;0.00;0.00;0.62;3.90;3.50;;;21.80;22.30;;;;;;2271432;61;20385;-66
2024/03/27 05:36:01;0.00;0.00;0.62;0.00;0.00;0.62;4.30;3.17;;;21.80;22.30;;;;;;2271429;61;20343;-66
2024/03/27 05:38:27;0.00;0.00;0.62;0.00;0.00;0.62;3.90;3.40;;;21.80;22.30;;;;;;2271239;61;20371;-66
2024/03/27 05:40:53;0.00;0.00;0.62;0.00;0.00;0.62;3.83;2.93;;;21.80;22.30;;;;;;2271509;61;20853;-66
2024/03/27 05:43:20;0.00;0.00;0.62;0.00;0.00;0.62;4.50;3.50;;;21.80;22.40;;;;;;2271224;61;20347;-66
2024/03/27 05:45:46;0.00;0.00;0.62;0.00;0.00;0.62;3.53;3.23;;;21.80;22.30;;;;;;2271200;61;20347;-67
2024/03/27 05:48:12;0.00;0.00;0.62;0.00;0.00;0.62;4.73;3.60;;;21.70;22.30;;;;;;2271350;61;20375;-64
2024/03/27 05:50:38;0.00;0.00;0.62;0.00;0.00;0.62;4.27;3.70;;;21.70;22.30;;;;;;2271349;61;20355;-67
2024/03/27 05:53:06;0.00;0.00;0.62;0.00;0.00;0.62;3.90;3.13;;;21.70;22.20;;;;;;2271210;61;20986;-66
2024/03/27 05:55:32;0.00;0.00;0.62;0.00;0.00;0.62;5.27;3.70;;;21.70;22.30;;;;;;2271377;61;20347;-67
2024/03/27 05:57:58;0.00;0.00;0.62;0.00;0.00;0.62;3.93;3.20;;;21.70;22.30;;;;;;2271340;61;20423;-67
2024/03/27 06:00:24;0.00;0.00;0.62;0.00;0.00;0.62;4.80;3.47;;;21.80;22.30;;;;;;2271039;61;20335;-66
2024/03/27 06:02:51;0.00;0.00;0.62;0.00;0.00;0.62;3.60;3.20;;;21.70;22.30;;;;;;2271437;60;20860;-66
2024/03/27 06:05:17;0.00;0.00;0.62;0.00;0.00;0.62;3.47;3.17;;;21.80;22.30;;;;;;2272156;61;20403;-67
2024/03/27 06:07:43;0.00;0.00;0.62;0.00;0.00;0.62;4.83;3.57;;;21.70;22.30;;;;;;2271944;61;20535;-66
2024/03/27 06:10:11;0.00;0.00;0.62;0.00;0.00;0.62;3.90;3.50;;;21.70;22.30;;;;;;2272149;61;20363;-66
2024/03/27 06:12:37;0.00;0.00;0.62;0.00;0.00;0.62;5.10;4.10;;;21.70;22.30;;;;;;2271976;61;20355;-66
2024/03/27 06:15:05;0.00;0.00;0.62;0.00;0.00;0.62;4.60;4.00;;;21.80;22.90;;;;;;2271831;61;20402;-66
2024/03/27 06:17:31;0.00;0.00;0.62;0.00;0.00;0.62;4.93;3.83;;;21.70;22.30;;;;;;2272094;61;20611;-67
2024/03/27 06:19:57;0.00;0.00;0.62;0.00;0.00;0.62;4.37;3.43;;;21.70;22.30;;;;;;2271913;61;20351;-67
2024/03/27 06:22:23;0.00;0.00;0.62;0.00;0.00;0.62;4.93;4.00;;;21.70;22.30;;;;;;2271920;61;20351;-66
2024/03/27 06:24:49;0.00;0.00;0.62;0.00;0.00;0.62;4.77;4.00;;;21.70;22.30;;;;;;2272085;61;20355;-66
2024/03/27 06:27:17;0.00;0.00;0.62;0.00;0.00;0.62;4.37;3.73;;;21.70;22.30;;;;;;2271986;61;20402;-66
2024/03/27 06:29:43;0.00;0.00;0.62;0.00;0.00;0.62;4.30;3.60;;;21.70;22.30;;;;;;2271864;61;20355;-67
2024/03/27 06:32:10;0.00;0.00;0.62;0.00;0.00;0.62;4.70;4.30;;;21.70;22.30;;;;;;2271297;61;20380;-67
2024/03/27 06:34:36;0.00;0.00;0.62;0.00;0.00;0.62;4.90;4.00;;;21.70;22.30;;;;;;2271963;60;20377;-65
2024/03/27 06:37:02;0.00;0.00;0.62;0.00;0.00;0.62;4.43;4.03;;;21.70;22.30;;;;;;2271730;61;20387;-66
2024/03/27 06:39:29;0.00;0.00;0.62;0.00;0.00;0.62;5.30;3.93;;;21.70;22.30;;;;;;2271910;61;20749;-67
2024/03/27 06:41:56;0.00;0.00;0.62;0.00;0.00;0.62;5.70;4.10;;;21.70;22.30;;;;;;2271984;61;21011;-67
2024/03/27 06:44:23;0.00;0.00;0.62;0.00;0.00;0.62;5.57;4.40;;;21.70;22.30;;;;;;2271832;61;20387;-65
2024/03/27 06:46:49;0.00;0.00;0.62;0.00;0.00;0.62;6.03;4.50;;;21.70;22.30;;;;;;2272142;61;20512;-67
2024/03/27 06:49:18;0.00;0.00;0.62;0.00;0.00;0.62;5.17;4.40;;;21.70;22.30;;;;;;2271838;61;20466;-67
2024/03/27 06:51:45;0.00;0.00;0.62;0.00;0.00;0.62;5.13;4.30;;;21.80;22.30;;;;;;2271824;60;20743;-67
2024/03/27 06:54:12;0.00;0.00;0.62;0.00;0.00;0.62;6.63;4.97;;;21.70;22.30;;;;;;2271930;61;20358;-67
2024/03/27 06:56:38;0.00;0.00;0.62;0.00;0.00;0.62;7.47;5.87;;;21.70;22.30;;;;;;2271867;60;20447;-67
2024/03/27 06:59:04;0.00;0.00;0.62;0.00;0.00;0.62;6.67;5.70;;;21.70;22.30;;;;;;2272001;61;20355;-66
2024/03/27 07:01:32;0.00;0.00;0.62;0.00;0.00;0.62;6.23;5.60;;;21.70;22.30;;;;;;2271549;61;20753;-66
2024/03/27 07:03:58;0.00;0.00;0.62;0.00;0.00;0.62;7.17;5.83;;;21.70;22.30;;;;;;2271739;61;20869;-67
2024/03/27 07:06:24;0.00;0.00;0.62;0.00;0.00;0.62;6.70;5.50;;;21.70;22.30;;;;;;2271884;61;20375;-67
2024/03/27 07:08:50;0.00;0.00;0.62;0.00;0.00;0.62;8.37;6.37;;;21.70;22.30;;;;;;2271927;61;20367;-67
2024/03/27 07:11:16;0.00;0.00;0.62;0.00;0.00;0.62;6.63;5.80;;;21.70;22.30;;;;;;2271892;61;20358;-66
2024/03/27 07:13:43;0.00;0.00;0.62;0.00;0.00;0.62;7.50;6.30;;;21.70;22.30;;;;;;2271613;60;20347;-66
2024/03/27 07:16:09;0.00;0.00;0.62;0.00;0.00;0.62;8.47;6.00;;;21.70;22.30;;;;;;2271438;61;20358;-67
2024/03/27 07:18:38;0.00;0.00;0.62;0.00;0.00;0.62;8.20;7.37;;;21.70;22.40;;;;;;2271958;61;20805;-67
2024/03/27 07:21:04;0.00;0.00;0.62;0.00;0.00;0.62;8.70;6.97;;;21.70;22.30;;;;;;2271880;61;20360;-67
2024/03/27 07:23:30;0.00;0.00;0.62;0.00;0.00;0.62;9.10;8.20;;;21.70;22.90;;;;;;2271688;61;20509;-66
2024/03/27 07:25:57;0.00;0.00;0.62;0.00;0.00;0.62;7.70;6.60;;;21.70;22.40;;;;;;2271435;61;20347;-66
2024/03/27 07:28:23;0.00;0.00;0.62;0.00;0.00;0.62;8.00;7.10;;;21.80;22.40;;;;;;2271685;61;20447;-67
2024/03/27 07:30:50;0.00;0.00;0.62;0.00;0.00;0.62;8.43;7.10;;;21.70;22.40;;;;;;2271641;61;20351;-67
2024/03/27 07:33:16;0.00;0.00;0.62;0.00;0.00;0.62;8.30;7.20;;;21.70;22.40;;;;;;2271822;61;21118;-67
2024/03/27 07:35:44;0.00;0.00;0.62;0.00;0.00;0.62;8.43;7.20;;;21.70;22.40;;;;;;2271760;61;20936;-66
2024/03/27 07:38:10;0.00;0.00;0.62;0.00;0.00;0.62;8.00;7.20;;;21.70;22.40;;;;;;2271633;61;20418;-66
2024/03/27 07:40:36;0.00;0.00;0.62;0.00;0.00;0.62;8.83;7.63;;;21.70;22.40;;;;;;2271732;61;21112;-66
2024/03/27 07:43:03;0.00;0.00;0.62;0.00;0.00;0.62;10.03;8.37;;;21.80;22.40;;;;;;2271811;61;20359;-67
2024/03/27 07:45:29;0.00;0.00;0.62;0.00;0.00;0.62;9.47;8.30;;;21.80;22.40;;;;;;2271729;61;20364;-66
2024/03/27 07:47:55;0.00;0.00;0.62;0.00;0.00;0.62;10.00;7.90;;;21.80;23.00;;;;;;2271776;61;20463;-66
2024/03/27 07:50:21;0.00;0.00;0.62;0.00;0.00;0.62;9.70;8.20;;;21.80;22.40;;;;;;2271831;61;20347;-66
2024/03/27 07:52:49;0.00;0.00;0.62;0.00;0.00;0.62;10.07;9.00;;;21.80;22.40;;;;;;2271171;61;20816;-66
2024/03/27 07:55:15;0.00;0.00;0.62;0.00;0.00;0.62;9.60;7.87;;;21.80;22.40;;;;;;2271875;61;20366;-65
2024/03/27 07:57:42;0.00;0.00;0.62;0.00;0.00;0.62;10.00;8.03;;;21.80;22.40;;;;;;2271607;61;20893;-66
2024/03/27 08:00:11;0.00;0.00;0.62;0.00;0.00;0.62;9.00;8.10;;;21.80;22.50;;;;;;2271667;60;20365;-67
2024/03/27 08:02:37;0.00;0.00;0.62;0.00;0.00;0.62;9.30;8.20;;;21.80;22.40;;;;;;2271425;61;20357;-66
2024/03/27 08:05:05;0.00;0.00;0.62;0.00;0.00;0.62;7.90;6.97;;;21.80;22.50;;;;;;2271593;61;20347;-67
2024/03/27 08:07:31;0.00;0.00;0.62;0.00;0.00;0.62;10.17;8.23;;;21.80;22.50;;;;;;2271414;61;20383;-66
2024/03/27 08:09:58;0.00;0.00;0.62;0.00;0.00;0.62;10.37;7.17;;;21.80;22.40;;;;;;2271835;61;20359;-66
2024/03/27 08:12:25;0.00;0.00;0.62;0.00;0.00;0.62;8.23;7.43;;;21.80;23.00;;;;;;2271560;61;20386;-66
2024/03/27 08:14:51;0.00;0.00;0.62;0.00;0.00;0.62;8.30;7.33;;;21.80;22.50;;;;;;2271391;61;20923;-65
2024/03/27 08:17:17;0.00;0.00;0.62;0.00;0.00;0.62;9.10;7.80;;;21.80;22.50;;;;;;2271706;61;20371;-66
2024/03/27 08:19:43;0.00;0.00;0.62;0.00;0.00;0.62;9.13;7.07;;;21.80;22.50;;;;;;2271535;61;20370;-66
2024/03/27 08:22:09;0.00;0.00;0.62;0.00;0.00;0.62;9.10;7.00;;;21.80;22.50;;;;;;2271121;61;20344;-65
2024/03/27 08:24:36;0.00;0.00;0.62;0.00;0.00;0.62;8.70;7.37;;;21.80;22.50;;;;;;2271842;60;20359;-65
2024/03/27 08:27:05;0.00;0.00;0.62;0.00;0.00;0.62;8.00;7.20;;;21.80;22.50;;;;;;2271269;61;20963;-66
2024/03/27 08:29:31;0.00;0.00;0.62;0.00;0.00;0.62;8.83;7.93;;;21.80;22.50;;;;;;2271219;61;20441;-65
2024/03/27 08:31:58;0.00;0.00;0.62;0.00;0.00;0.62;9.23;7.50;;;21.80;22.50;;;;;;2271475;61;20378;-67
2024/03/27 08:34:24;0.00;0.00;0.62;0.00;0.00;0.62;9.47;7.87;;;21.80;22.50;;;;;;2271409;61;20443;-66
2024/03/27 08:36:50;0.00;0.00;0.62;0.00;0.00;0.62;9.30;7.83;;;21.80;22.50;;;;;;2271426;61;20414;-66
2024/03/27 08:39:17;0.00;0.00;0.62;0.00;0.00;0.62;9.53;8.27;;;21.80;22.50;;;;;;2271745;61;20440;-66
2024/03/27 08:41:46;0.00;0.00;0.62;0.00;0.00;0.62;8.03;7.23;;;21.80;22.50;;;;;;2271514;61;20343;-63
2024/03/27 08:44:15;0.00;0.00;0.62;0.00;0.00;0.62;8.50;7.60;;;21.80;22.60;;;;;;2271825;61;20377;-66
2024/03/27 08:46:41;0.00;0.00;0.62;0.00;0.00;0.62;8.63;7.13;;;21.80;22.50;;;;;;2271569;61;20378;-66
2024/03/27 08:49:07;0.00;0.00;0.62;0.00;0.00;0.62;8.90;7.67;;;21.80;22.50;;;;;;2271484;61;20395;-65
2024/03/27 08:51:33;0.00;0.00;0.62;0.00;0.00;0.62;9.37;7.53;;;21.90;22.60;;;;;;2271622;61;20348;-66
2024/03/27 08:53:59;0.00;0.00;0.62;0.00;0.00;0.62;9.73;8.43;;;21.90;22.60;;;;;;2271677;61;20351;-67
2024/03/27 08:56:25;0.00;0.00;0.62;0.00;0.00;0.62;7.83;6.87;;;21.90;22.60;;;;;;2271624;61;20462;-66
2024/03/27 08:58:51;0.00;0.00;0.62;0.00;0.00;0.62;8.33;6.90;;;21.90;22.70;;;;;;2271575;61;20344;-67
2024/03/27 09:01:19;0.00;0.00;0.62;0.00;0.00;0.62;8.77;7.53;;;21.90;22.70;;;;;;2271515;61;20750;-66
2024/03/27 09:03:46;0.00;0.00;0.62;0.00;0.00;0.62;6.30;5.70;;;21.90;22.70;;;;;;2271114;61;20884;-66
2024/03/27 09:06:13;0.00;0.00;0.62;0.00;0.00;0.62;7.20;6.50;;;21.90;22.70;;;;;;2271411;61;20418;-65
2024/03/27 09:08:40;0.00;0.00;0.62;0.00;0.00;0.62;7.07;6.37;;;21.90;22.70;;;;;;2271522;61;20383;-66
2024/03/27 09:11:08;0.00;0.00;0.62;0.00;0.00;0.62;7.90;7.10;;;21.90;22.70;;;;;;2271550;61;20439;-66
2024/03/27 09:13:34;0.00;0.00;0.62;0.00;0.00;0.62;6.77;6.07;;;21.90;22.70;;;;;;2271402;61;20445;-66
2024/03/27 09:16:00;0.00;0.00;0.62;0.00;0.00;0.62;7.30;6.03;;;21.90;22.70;;;;;;2271366;61;20355;-67
2024/03/27 09:18:28;0.00;0.00;0.62;0.00;0.00;0.62;7.63;5.70;;;21.90;22.70;;;;;;2271523;61;20438;-66
2024/03/27 09:20:55;0.00;0.00;0.62;0.00;0.00;0.62;7.00;5.90;;;21.90;22.70;;;;;;2271130;60;20919;-67
2024/03/27 09:23:22;0.00;0.00;0.62;0.00;0.00;0.62;7.00;5.70;;;21.90;22.80;;;;;;2271434;61;20348;-67
2024/03/27 09:26:00;0.00;0.00;0.62;0.00;0.00;0.62;6.47;5.50;;;21.90;22.80;;;;;;2271046;61;20865;-67
2024/03/27 09:28:26;0.00;0.00;0.62;0.00;0.00;0.62;6.10;5.50;;;22.00;22.90;;;;;;2271402;61;20370;-67
2024/03/27 09:30:54;0.00;0.00;0.62;0.00;0.00;0.62;6.97;5.60;;;21.90;22.80;;;;;;2271438;61;20907;-67
2024/03/27 09:33:20;0.00;0.00;0.62;0.00;0.00;0.62;6.50;5.90;;;22.00;22.90;;;;;;2271423;61;20766;-67
2024/03/27 09:35:50;0.00;0.00;0.62;0.00;0.00;0.62;5.50;4.90;;;22.00;22.90;;;;;;2271394;61;20358;-66
2024/03/27 09:38:16;0.00;0.00;0.62;0.00;0.00;0.62;6.00;4.80;;;22.00;23.00;;;;;;2271896;61;20623;-67